sensor_id;sensor_type;location;lat;lon;timestamp;P1;durP1;ratioP1;P2;durP2;ratioP2
70078;SDS011;57451;52.496;13.456;2023-05-14T00:00:31;14.00;;;8.60;;
70078;SDS011;57451;52.496;13.456;2023-05-14T00:02:59;12.93;;;8.77;;
70078;SDS011;57451;52.496;13.456;2023-05-14T00:05:29;13.18;;;8.77;;
70078;SDS011;57451;52.496;13.456;2023-05-14T00:07:56;11.68;;;8.35;;
70078;SDS011;57451;52.496;13.456;2023-05-14T00:10:24;15.57;;;9.03;;
70078;SDS011;57451;52.496;13.456;2023-05-14T00:12:53;13.15;;;8.68;;
70078;SDS011;57451;52.496;13.456;2023-05-14T00:15:21;12.13;;;8.00;;
70078;SDS011;57451;52.496;13.456;2023-05-14T00:17:49;14.35;;;8.88;;
70078;SDS011;57451;52.496;13.456;2023-05-14T00:20:17;11.70;;;8.40;;
70078;SDS011;57451;52.496;13.456;2023-05-14T00:22:46;14.10;;;8.67;;
70078;SDS011;57451;52.496;13.456;2023-05-14T00:25:14;13.50;;;8.30;;
70078;SDS011;57451;52.496;13.456;2023-05-14T00:27:41;11.13;;;8.10;;
70078;SDS011;57451;52.496;13.456;2023-05-14T00:30:11;11.60;;;8.23;;
70078;SDS011;57451;52.496;13.456;2023-05-14T00:32:39;14.38;;;8.25;;
70078;SDS011;57451;52.496;13.456;2023-05-14T00:35:07;11.97;;;8.03;;
70078;SDS011;57451;52.496;13.456;2023-05-14T00:37:35;11.88;;;8.02;;
70078;SDS011;57451;52.496;13.456;2023-05-14T00:40:05;12.77;;;8.05;;
70078;SDS011;57451;52.496;13.456;2023-05-14T00:42:34;13.80;;;7.97;;
70078;SDS011;57451;52.496;13.456;2023-05-14T00:45:02;11.98;;;8.18;;
70078;SDS011;57451;52.496;13.456;2023-05-14T00:47:30;11.27;;;7.93;;
70078;SDS011;57451;52.496;13.456;2023-05-14T00:50:01;12.32;;;7.72;;
70078;SDS011;57451;52.496;13.456;2023-05-14T00:52:29;10.05;;;7.18;;
70078;SDS011;57451;52.496;13.456;2023-05-14T00:54:58;10.13;;;7.32;;
70078;SDS011;57451;52.496;13.456;2023-05-14T00:57:28;11.88;;;7.75;;
70078;SDS011;57451;52.496;13.456;2023-05-14T00:59:56;10.87;;;7.50;;
70078;SDS011;57451;52.496;13.456;2023-05-14T01:02:24;10.98;;;7.25;;
70078;SDS011;57451;52.496;13.456;2023-05-14T01:04:52;12.80;;;7.25;;
70078;SDS011;57451;52.496;13.456;2023-05-14T01:07:22;10.85;;;7.13;;
70078;SDS011;57451;52.496;13.456;2023-05-14T01:09:58;10.45;;;6.50;;
70078;SDS011;57451;52.496;13.456;2023-05-14T01:12:32;11.03;;;6.90;;
70078;SDS011;57451;52.496;13.456;2023-05-14T01:15:06;10.00;;;6.55;;
70078;SDS011;57451;52.496;13.456;2023-05-14T01:17:37;9.75;;;6.15;;
70078;SDS011;57451;52.496;13.456;2023-05-14T01:20:08;10.18;;;6.60;;
70078;SDS011;57451;52.496;13.456;2023-05-14T01:22:38;10.95;;;6.30;;
70078;SDS011;57451;52.496;13.456;2023-05-14T01:25:06;11.07;;;6.83;;
70078;SDS011;57451;52.496;13.456;2023-05-14T01:27:34;11.88;;;6.45;;
70078;SDS011;57451;52.496;13.456;2023-05-14T01:30:11;9.88;;;6.60;;
70078;SDS011;57451;52.496;13.456;2023-05-14T01:32:46;8.55;;;6.50;;
70078;SDS011;57451;52.496;13.456;2023-05-14T01:35:21;11.20;;;6.25;;
70078;SDS011;57451;52.496;13.456;2023-05-14T01:37:52;9.83;;;5.90;;
70078;SDS011;57451;52.496;13.456;2023-05-14T01:40:22;8.85;;;6.13;;
70078;SDS011;57451;52.496;13.456;2023-05-14T01:42:51;8.43;;;5.68;;
70078;SDS011;57451;52.496;13.456;2023-05-14T01:45:19;11.18;;;6.30;;
70078;SDS011;57451;52.496;13.456;2023-05-14T01:47:47;8.68;;;5.88;;
70078;SDS011;57451;52.496;13.456;2023-05-14T01:50:15;10.47;;;6.23;;
70078;SDS011;57451;52.496;13.456;2023-05-14T01:52:43;10.20;;;5.90;;
70078;SDS011;57451;52.496;13.456;2023-05-14T01:55:13;10.65;;;5.65;;
70078;SDS011;57451;52.496;13.456;2023-05-14T01:57:43;12.30;;;6.00;;
70078;SDS011;57451;52.496;13.456;2023-05-14T02:00:11;10.88;;;6.32;;
70078;SDS011;57451;52.496;13.456;2023-05-14T02:02:42;8.03;;;5.80;;
70078;SDS011;57451;52.496;13.456;2023-05-14T02:05:11;9.48;;;6.10;;
70078;SDS011;57451;52.496;13.456;2023-05-14T02:07:39;10.90;;;6.70;;
70078;SDS011;57451;52.496;13.456;2023-05-14T02:10:08;10.50;;;6.00;;
70078;SDS011;57451;52.496;13.456;2023-05-14T02:12:38;8.93;;;5.82;;
70078;SDS011;57451;52.496;13.456;2023-05-14T02:15:07;9.13;;;5.53;;
70078;SDS011;57451;52.496;13.456;2023-05-14T02:17:37;9.15;;;5.55;;
70078;SDS011;57451;52.496;13.456;2023-05-14T02:20:05;10.10;;;5.68;;
70078;SDS011;57451;52.496;13.456;2023-05-14T02:22:33;8.60;;;5.57;;
70078;SDS011;57451;52.496;13.456;2023-05-14T02:25:01;9.57;;;5.97;;
70078;SDS011;57451;52.496;13.456;2023-05-14T02:27:29;9.03;;;5.83;;
70078;SDS011;57451;52.496;13.456;2023-05-14T02:29:59;8.43;;;5.88;;
70078;SDS011;57451;52.496;13.456;2023-05-14T02:32:27;10.20;;;5.50;;
70078;SDS011;57451;52.496;13.456;2023-05-14T02:34:55;8.63;;;5.25;;
70078;SDS011;57451;52.496;13.456;2023-05-14T02:37:22;9.10;;;5.82;;
70078;SDS011;57451;52.496;13.456;2023-05-14T02:39:50;12.07;;;5.90;;
70078;SDS011;57451;52.496;13.456;2023-05-14T02:42:21;9.70;;;5.53;;
70078;SDS011;57451;52.496;13.456;2023-05-14T02:44:50;9.85;;;4.82;;
70078;SDS011;57451;52.496;13.456;2023-05-14T02:47:20;7.20;;;5.28;;
70078;SDS011;57451;52.496;13.456;2023-05-14T02:49:48;8.07;;;5.60;;
70078;SDS011;57451;52.496;13.456;2023-05-14T02:52:30;7.37;;;5.40;;
70078;SDS011;57451;52.496;13.456;2023-05-14T02:54:58;8.52;;;5.55;;
70078;SDS011;57451;52.496;13.456;2023-05-14T02:57:26;8.95;;;5.40;;
70078;SDS011;57451;52.496;13.456;2023-05-14T02:59:54;9.18;;;5.63;;
70078;SDS011;57451;52.496;13.456;2023-05-14T03:02:23;10.00;;;5.93;;
70078;SDS011;57451;52.496;13.456;2023-05-14T03:04:52;11.30;;;5.73;;
70078;SDS011;57451;52.496;13.456;2023-05-14T03:07:19;8.25;;;5.70;;
70078;SDS011;57451;52.496;13.456;2023-05-14T03:09:47;9.07;;;5.55;;
70078;SDS011;57451;52.496;13.456;2023-05-14T03:12:15;10.18;;;5.85;;
70078;SDS011;57451;52.496;13.456;2023-05-14T03:14:46;8.45;;;5.72;;
70078;SDS011;57451;52.496;13.456;2023-05-14T03:17:14;10.73;;;6.07;;
70078;SDS011;57451;52.496;13.456;2023-05-14T03:19:43;8.30;;;5.68;;
70078;SDS011;57451;52.496;13.456;2023-05-14T03:22:11;10.13;;;6.00;;
70078;SDS011;57451;52.496;13.456;2023-05-14T03:24:39;10.27;;;6.10;;
70078;SDS011;57451;52.496;13.456;2023-05-14T03:27:06;8.27;;;5.68;;
70078;SDS011;57451;52.496;13.456;2023-05-14T03:29:34;9.47;;;6.03;;
70078;SDS011;57451;52.496;13.456;2023-05-14T03:32:02;9.45;;;6.07;;
70078;SDS011;57451;52.496;13.456;2023-05-14T03:34:29;12.07;;;5.88;;
70078;SDS011;57451;52.496;13.456;2023-05-14T03:36:59;8.48;;;5.90;;
70078;SDS011;57451;52.496;13.456;2023-05-14T03:39:27;8.77;;;5.90;;
70078;SDS011;57451;52.496;13.456;2023-05-14T03:41:55;9.10;;;5.50;;
70078;SDS011;57451;52.496;13.456;2023-05-14T03:44:24;10.95;;;6.15;;
70078;SDS011;57451;52.496;13.456;2023-05-14T03:46:52;12.52;;;5.90;;
70078;SDS011;57451;52.496;13.456;2023-05-14T03:49:20;9.95;;;5.82;;
70078;SDS011;57451;52.496;13.456;2023-05-14T03:51:47;9.93;;;6.00;;
70078;SDS011;57451;52.496;13.456;2023-05-14T03:54:16;11.20;;;5.90;;
70078;SDS011;57451;52.496;13.456;2023-05-14T03:56:44;9.73;;;6.50;;
70078;SDS011;57451;52.496;13.456;2023-05-14T03:59:12;8.85;;;5.97;;
70078;SDS011;57451;52.496;13.456;2023-05-14T04:01:40;12.48;;;5.93;;
70078;SDS011;57451;52.496;13.456;2023-05-14T04:04:08;9.50;;;5.90;;
70078;SDS011;57451;52.496;13.456;2023-05-14T04:06:36;8.83;;;5.97;;
70078;SDS011;57451;52.496;13.456;2023-05-14T04:09:03;7.93;;;6.10;;
70078;SDS011;57451;52.496;13.456;2023-05-14T04:11:32;11.50;;;5.85;;
70078;SDS011;57451;52.496;13.456;2023-05-14T04:14:00;10.32;;;6.05;;
70078;SDS011;57451;52.496;13.456;2023-05-14T04:16:28;7.68;;;5.90;;
70078;SDS011;57451;52.496;13.456;2023-05-14T04:18:56;12.00;;;6.40;;
70078;SDS011;57451;52.496;13.456;2023-05-14T04:21:24;9.70;;;6.43;;
70078;SDS011;57451;52.496;13.456;2023-05-14T04:23:53;8.80;;;6.22;;
70078;SDS011;57451;52.496;13.456;2023-05-14T04:26:21;10.07;;;6.07;;
70078;SDS011;57451;52.496;13.456;2023-05-14T04:28:50;10.77;;;6.72;;
70078;SDS011;57451;52.496;13.456;2023-05-14T04:31:18;10.27;;;7.50;;
70078;SDS011;57451;52.496;13.456;2023-05-14T04:33:46;10.18;;;6.72;;
70078;SDS011;57451;52.496;13.456;2023-05-14T04:36:14;10.00;;;6.30;;
70078;SDS011;57451;52.496;13.456;2023-05-14T04:38:42;10.18;;;6.38;;
70078;SDS011;57451;52.496;13.456;2023-05-14T04:41:09;12.38;;;6.35;;
70078;SDS011;57451;52.496;13.456;2023-05-14T04:43:38;9.23;;;6.23;;
70078;SDS011;57451;52.496;13.456;2023-05-14T04:46:07;10.80;;;6.25;;
70078;SDS011;57451;52.496;13.456;2023-05-14T04:48:36;12.65;;;6.70;;
70078;SDS011;57451;52.496;13.456;2023-05-14T04:51:08;12.75;;;6.93;;
70078;SDS011;57451;52.496;13.456;2023-05-14T04:53:36;10.05;;;6.30;;
70078;SDS011;57451;52.496;13.456;2023-05-14T04:56:04;9.17;;;6.13;;
70078;SDS011;57451;52.496;13.456;2023-05-14T04:58:32;13.52;;;6.45;;
70078;SDS011;57451;52.496;13.456;2023-05-14T05:01:01;12.48;;;6.80;;
70078;SDS011;57451;52.496;13.456;2023-05-14T05:03:32;9.38;;;6.60;;
70078;SDS011;57451;52.496;13.456;2023-05-14T05:06:00;10.07;;;6.18;;
70078;SDS011;57451;52.496;13.456;2023-05-14T05:08:27;10.00;;;6.17;;
70078;SDS011;57451;52.496;13.456;2023-05-14T05:10:55;9.68;;;6.13;;
70078;SDS011;57451;52.496;13.456;2023-05-14T05:13:23;11.63;;;6.22;;
70078;SDS011;57451;52.496;13.456;2023-05-14T05:15:51;11.57;;;6.03;;
70078;SDS011;57451;52.496;13.456;2023-05-14T05:18:20;8.38;;;5.80;;
70078;SDS011;57451;52.496;13.456;2023-05-14T05:20:49;8.63;;;5.60;;
70078;SDS011;57451;52.496;13.456;2023-05-14T05:23:17;11.25;;;6.32;;
70078;SDS011;57451;52.496;13.456;2023-05-14T05:25:45;10.95;;;6.40;;
70078;SDS011;57451;52.496;13.456;2023-05-14T05:28:13;9.30;;;6.20;;
70078;SDS011;57451;52.496;13.456;2023-05-14T05:30:40;9.32;;;6.20;;
70078;SDS011;57451;52.496;13.456;2023-05-14T05:33:11;10.27;;;6.50;;
70078;SDS011;57451;52.496;13.456;2023-05-14T05:35:39;10.88;;;6.47;;
70078;SDS011;57451;52.496;13.456;2023-05-14T05:38:08;11.52;;;6.63;;
70078;SDS011;57451;52.496;13.456;2023-05-14T05:40:36;11.48;;;6.15;;
70078;SDS011;57451;52.496;13.456;2023-05-14T05:43:04;10.02;;;6.32;;
70078;SDS011;57451;52.496;13.456;2023-05-14T05:45:32;11.67;;;6.47;;
70078;SDS011;57451;52.496;13.456;2023-05-14T05:48:00;11.70;;;6.35;;
70078;SDS011;57451;52.496;13.456;2023-05-14T05:50:27;12.15;;;6.35;;
70078;SDS011;57451;52.496;13.456;2023-05-14T05:52:56;12.15;;;6.65;;
70078;SDS011;57451;52.496;13.456;2023-05-14T05:55:26;9.48;;;6.30;;
70078;SDS011;57451;52.496;13.456;2023-05-14T05:57:54;10.63;;;6.40;;
70078;SDS011;57451;52.496;13.456;2023-05-14T06:00:22;10.77;;;6.28;;
70078;SDS011;57451;52.496;13.456;2023-05-14T06:02:53;10.57;;;6.43;;
70078;SDS011;57451;52.496;13.456;2023-05-14T06:05:22;9.57;;;6.18;;
70078;SDS011;57451;52.496;13.456;2023-05-14T06:07:50;12.73;;;6.45;;
70078;SDS011;57451;52.496;13.456;2023-05-14T06:10:19;8.87;;;6.17;;
70078;SDS011;57451;52.496;13.456;2023-05-14T06:12:49;9.82;;;6.40;;
70078;SDS011;57451;52.496;13.456;2023-05-14T06:15:17;10.63;;;6.85;;
70078;SDS011;57451;52.496;13.456;2023-05-14T06:17:47;9.30;;;6.28;;
70078;SDS011;57451;52.496;13.456;2023-05-14T06:20:19;8.82;;;6.28;;
70078;SDS011;57451;52.496;13.456;2023-05-14T06:22:47;11.33;;;6.33;;
70078;SDS011;57451;52.496;13.456;2023-05-14T06:25:17;11.63;;;6.25;;
70078;SDS011;57451;52.496;13.456;2023-05-14T06:27:44;12.15;;;6.20;;
70078;SDS011;57451;52.496;13.456;2023-05-14T06:30:14;15.15;;;6.30;;
70078;SDS011;57451;52.496;13.456;2023-05-14T06:32:45;9.90;;;6.65;;
70078;SDS011;57451;52.496;13.456;2023-05-14T06:35:16;11.40;;;6.40;;
70078;SDS011;57451;52.496;13.456;2023-05-14T06:37:46;11.25;;;6.32;;
70078;SDS011;57451;52.496;13.456;2023-05-14T06:40:17;8.52;;;5.68;;
70078;SDS011;57451;52.496;13.456;2023-05-14T06:42:45;8.95;;;6.10;;
70078;SDS011;57451;52.496;13.456;2023-05-14T06:45:15;12.18;;;6.30;;
70078;SDS011;57451;52.496;13.456;2023-05-14T06:47:45;9.63;;;5.90;;
70078;SDS011;57451;52.496;13.456;2023-05-14T06:50:19;10.32;;;5.68;;
70078;SDS011;57451;52.496;13.456;2023-05-14T06:52:58;9.20;;;5.97;;
70078;SDS011;57451;52.496;13.456;2023-05-14T06:55:33;11.18;;;6.20;;
70078;SDS011;57451;52.496;13.456;2023-05-14T06:58:02;10.18;;;5.57;;
70078;SDS011;57451;52.496;13.456;2023-05-14T07:00:31;9.97;;;5.97;;
70078;SDS011;57451;52.496;13.456;2023-05-14T07:02:58;9.30;;;5.35;;
70078;SDS011;57451;52.496;13.456;2023-05-14T07:05:29;9.00;;;5.68;;
70078;SDS011;57451;52.496;13.456;2023-05-14T07:07:56;9.50;;;5.65;;
70078;SDS011;57451;52.496;13.456;2023-05-14T07:10:24;7.90;;;5.57;;
70078;SDS011;57451;52.496;13.456;2023-05-14T07:12:52;7.23;;;4.87;;
70078;SDS011;57451;52.496;13.456;2023-05-14T07:15:25;8.95;;;5.50;;
70078;SDS011;57451;52.496;13.456;2023-05-14T07:17:54;10.05;;;5.80;;
70078;SDS011;57451;52.496;13.456;2023-05-14T07:20:21;9.48;;;5.80;;
70078;SDS011;57451;52.496;13.456;2023-05-14T07:22:52;9.00;;;5.25;;
70078;SDS011;57451;52.496;13.456;2023-05-14T07:25:20;7.70;;;5.07;;
70078;SDS011;57451;52.496;13.456;2023-05-14T07:27:48;8.02;;;4.93;;
70078;SDS011;57451;52.496;13.456;2023-05-14T07:30:15;7.85;;;5.47;;
70078;SDS011;57451;52.496;13.456;2023-05-14T07:32:43;8.98;;;5.28;;
70078;SDS011;57451;52.496;13.456;2023-05-14T07:35:12;10.02;;;5.32;;
70078;SDS011;57451;52.496;13.456;2023-05-14T07:37:41;7.43;;;5.13;;
70078;SDS011;57451;52.496;13.456;2023-05-14T07:40:09;8.68;;;5.18;;
70078;SDS011;57451;52.496;13.456;2023-05-14T07:42:36;7.53;;;5.03;;
70078;SDS011;57451;52.496;13.456;2023-05-14T07:45:04;8.82;;;5.25;;
70078;SDS011;57451;52.496;13.456;2023-05-14T07:47:32;7.88;;;4.97;;
70078;SDS011;57451;52.496;13.456;2023-05-14T07:50:00;8.47;;;4.50;;
70078;SDS011;57451;52.496;13.456;2023-05-14T07:52:30;7.88;;;4.65;;
70078;SDS011;57451;52.496;13.456;2023-05-14T07:54:58;9.77;;;4.75;;
70078;SDS011;57451;52.496;13.456;2023-05-14T07:57:27;8.52;;;4.82;;
70078;SDS011;57451;52.496;13.456;2023-05-14T07:59:55;9.40;;;4.80;;
70078;SDS011;57451;52.496;13.456;2023-05-14T08:02:22;6.50;;;4.50;;
70078;SDS011;57451;52.496;13.456;2023-05-14T08:04:50;9.15;;;5.15;;
70078;SDS011;57451;52.496;13.456;2023-05-14T08:07:18;8.20;;;4.40;;
70078;SDS011;57451;52.496;13.456;2023-05-14T08:09:47;6.20;;;3.85;;
70078;SDS011;57451;52.496;13.456;2023-05-14T08:12:14;7.05;;;4.45;;
70078;SDS011;57451;52.496;13.456;2023-05-14T08:14:42;7.33;;;4.53;;
70078;SDS011;57451;52.496;13.456;2023-05-14T08:17:10;7.03;;;4.20;;
70078;SDS011;57451;52.496;13.456;2023-05-14T08:19:37;8.52;;;4.80;;
70078;SDS011;57451;52.496;13.456;2023-05-14T08:22:05;7.80;;;3.80;;
70078;SDS011;57451;52.496;13.456;2023-05-14T08:24:32;7.05;;;4.20;;
70078;SDS011;57451;52.496;13.456;2023-05-14T08:27:02;7.13;;;3.90;;
70078;SDS011;57451;52.496;13.456;2023-05-14T08:29:30;5.90;;;3.67;;
70078;SDS011;57451;52.496;13.456;2023-05-14T08:31:57;8.25;;;3.90;;
70078;SDS011;57451;52.496;13.456;2023-05-14T08:34:34;6.75;;;4.15;;
70078;SDS011;57451;52.496;13.456;2023-05-14T08:37:02;7.75;;;3.90;;
70078;SDS011;57451;52.496;13.456;2023-05-14T08:39:29;6.80;;;3.67;;
70078;SDS011;57451;52.496;13.456;2023-05-14T08:41:57;6.38;;;3.90;;
70078;SDS011;57451;52.496;13.456;2023-05-14T08:44:29;6.72;;;4.03;;
70078;SDS011;57451;52.496;13.456;2023-05-14T08:47:02;8.90;;;3.90;;
70078;SDS011;57451;52.496;13.456;2023-05-14T08:49:31;6.95;;;4.03;;
70078;SDS011;57451;52.496;13.456;2023-05-14T08:52:04;6.57;;;3.70;;
70078;SDS011;57451;52.496;13.456;2023-05-14T08:54:32;8.02;;;3.60;;
70078;SDS011;57451;52.496;13.456;2023-05-14T08:57:01;8.85;;;3.78;;
70078;SDS011;57451;52.496;13.456;2023-05-14T08:59:30;5.18;;;3.58;;
70078;SDS011;57451;52.496;13.456;2023-05-14T09:01:59;5.85;;;3.70;;
70078;SDS011;57451;52.496;13.456;2023-05-14T09:04:28;7.27;;;3.70;;
70078;SDS011;57451;52.496;13.456;2023-05-14T09:06:58;7.53;;;3.88;;
70078;SDS011;57451;52.496;13.456;2023-05-14T09:09:27;8.73;;;4.10;;
70078;SDS011;57451;52.496;13.456;2023-05-14T09:11:55;6.03;;;3.40;;
70078;SDS011;57451;52.496;13.456;2023-05-14T09:14:23;6.97;;;3.85;;
70078;SDS011;57451;52.496;13.456;2023-05-14T09:16:51;5.97;;;3.50;;
70078;SDS011;57451;52.496;13.456;2023-05-14T09:19:26;6.55;;;3.80;;
70078;SDS011;57451;52.496;13.456;2023-05-14T09:21:59;7.32;;;4.13;;
70078;SDS011;57451;52.496;13.456;2023-05-14T09:25:12;8.98;;;3.88;;
70078;SDS011;57451;52.496;13.456;2023-05-14T09:33:13;5.50;;;3.33;;
70078;SDS011;57451;52.496;13.456;2023-05-14T09:40:58;6.70;;;3.53;;
70078;SDS011;57451;52.496;13.456;2023-05-14T09:45:05;6.78;;;3.65;;
70078;SDS011;57451;52.496;13.456;2023-05-14T09:57:34;7.35;;;3.50;;
70078;SDS011;57451;52.496;13.456;2023-05-14T10:05:20;5.93;;;3.67;;
70078;SDS011;57451;52.496;13.456;2023-05-14T10:25:20;6.05;;;3.80;;
70078;SDS011;57451;52.496;13.456;2023-05-14T10:40:12;5.93;;;3.75;;
70078;SDS011;57451;52.496;13.456;2023-05-14T10:47:43;7.10;;;3.55;;
70078;SDS011;57451;52.496;13.456;2023-05-14T11:03:50;7.00;;;4.10;;
70078;SDS011;57451;52.496;13.456;2023-05-14T11:07:42;5.32;;;3.60;;
70078;SDS011;57451;52.496;13.456;2023-05-14T11:15:20;7.38;;;3.80;;
70078;SDS011;57451;52.496;13.456;2023-05-14T11:27:23;7.20;;;3.88;;
70078;SDS011;57451;52.496;13.456;2023-05-14T11:35:07;6.45;;;4.30;;
70078;SDS011;57451;52.496;13.456;2023-05-14T11:39:28;7.13;;;4.30;;
70078;SDS011;57451;52.496;13.456;2023-05-14T11:48:03;6.75;;;4.22;;
70078;SDS011;57451;52.496;13.456;2023-05-14T12:17:05;6.50;;;4.25;;
70078;SDS011;57451;52.496;13.456;2023-05-14T12:45:58;6.72;;;3.97;;
70078;SDS011;57451;52.496;13.456;2023-05-14T12:56:01;6.70;;;3.40;;
70078;SDS011;57451;52.496;13.456;2023-05-14T13:15:13;6.27;;;3.63;;
70078;SDS011;57451;52.496;13.456;2023-05-14T13:22:52;7.00;;;3.90;;
70078;SDS011;57451;52.496;13.456;2023-05-14T13:46:41;5.85;;;3.70;;
70078;SDS011;57451;52.496;13.456;2023-05-14T13:54:17;6.13;;;3.40;;
70078;SDS011;57451;52.496;13.456;2023-05-14T16:51:18;5.70;;;3.77;;
70078;SDS011;57451;52.496;13.456;2023-05-14T16:53:50;6.80;;;4.20;;
70078;SDS011;57451;52.496;13.456;2023-05-14T16:56:21;5.77;;;3.73;;
70078;SDS011;57451;52.496;13.456;2023-05-14T16:58:49;7.65;;;4.38;;
70078;SDS011;57451;52.496;13.456;2023-05-14T17:01:16;6.82;;;4.00;;
70078;SDS011;57451;52.496;13.456;2023-05-14T17:03:44;6.82;;;4.43;;
70078;SDS011;57451;52.496;13.456;2023-05-14T17:06:14;6.68;;;4.22;;
70078;SDS011;57451;52.496;13.456;2023-05-14T17:08:42;7.57;;;4.00;;
70078;SDS011;57451;52.496;13.456;2023-05-14T17:11:11;8.18;;;4.55;;
70078;SDS011;57451;52.496;13.456;2023-05-14T17:13:39;6.57;;;4.20;;
70078;SDS011;57451;52.496;13.456;2023-05-14T17:16:09;8.07;;;4.20;;
70078;SDS011;57451;52.496;13.456;2023-05-14T17:18:38;9.30;;;4.15;;
70078;SDS011;57451;52.496;13.456;2023-05-14T17:21:10;8.23;;;4.30;;
70078;SDS011;57451;52.496;13.456;2023-05-14T17:23:42;6.25;;;4.22;;
70078;SDS011;57451;52.496;13.456;2023-05-14T17:26:10;7.82;;;4.22;;
70078;SDS011;57451;52.496;13.456;2023-05-14T17:28:38;7.78;;;4.30;;
70078;SDS011;57451;52.496;13.456;2023-05-14T17:31:05;7.95;;;4.35;;
70078;SDS011;57451;52.496;13.456;2023-05-14T17:33:33;10.73;;;4.57;;
70078;SDS011;57451;52.496;13.456;2023-05-14T17:36:01;7.72;;;4.72;;
70078;SDS011;57451;52.496;13.456;2023-05-14T17:38:29;8.18;;;4.45;;
70078;SDS011;57451;52.496;13.456;2023-05-14T17:40:59;6.30;;;4.47;;
70078;SDS011;57451;52.496;13.456;2023-05-14T17:43:28;8.77;;;4.90;;
70078;SDS011;57451;52.496;13.456;2023-05-14T17:45:55;6.20;;;4.27;;
70078;SDS011;57451;52.496;13.456;2023-05-14T17:48:23;6.30;;;4.63;;
70078;SDS011;57451;52.496;13.456;2023-05-14T17:50:51;6.15;;;4.20;;
70078;SDS011;57451;52.496;13.456;2023-05-14T17:53:22;9.73;;;4.90;;
70078;SDS011;57451;52.496;13.456;2023-05-14T17:55:51;7.65;;;4.63;;
70078;SDS011;57451;52.496;13.456;2023-05-14T17:58:20;7.20;;;5.03;;
70078;SDS011;57451;52.496;13.456;2023-05-14T18:00:48;9.75;;;5.07;;
70078;SDS011;57451;52.496;13.456;2023-05-14T18:03:19;9.93;;;5.30;;
70078;SDS011;57451;52.496;13.456;2023-05-14T18:05:47;8.27;;;5.18;;
70078;SDS011;57451;52.496;13.456;2023-05-14T18:08:17;7.60;;;4.45;;
70078;SDS011;57451;52.496;13.456;2023-05-14T18:10:44;7.33;;;4.50;;
70078;SDS011;57451;52.496;13.456;2023-05-14T18:13:12;8.73;;;5.03;;
70078;SDS011;57451;52.496;13.456;2023-05-14T18:15:41;9.38;;;4.70;;
70078;SDS011;57451;52.496;13.456;2023-05-14T18:18:08;10.88;;;6.53;;
70078;SDS011;57451;52.496;13.456;2023-05-14T18:20:36;9.02;;;5.10;;
70078;SDS011;57451;52.496;13.456;2023-05-14T18:23:04;8.13;;;5.27;;
70078;SDS011;57451;52.496;13.456;2023-05-14T18:25:32;8.32;;;4.80;;
70078;SDS011;57451;52.496;13.456;2023-05-14T18:28:00;9.45;;;5.10;;
70078;SDS011;57451;52.496;13.456;2023-05-14T18:30:27;8.32;;;5.00;;
70078;SDS011;57451;52.496;13.456;2023-05-14T18:32:56;10.85;;;5.00;;
70078;SDS011;57451;52.496;13.456;2023-05-14T18:35:25;9.00;;;4.93;;
70078;SDS011;57451;52.496;13.456;2023-05-14T18:37:53;10.20;;;5.32;;
70078;SDS011;57451;52.496;13.456;2023-05-14T18:40:21;10.30;;;5.82;;
70078;SDS011;57451;52.496;13.456;2023-05-14T18:42:48;8.80;;;4.90;;
70078;SDS011;57451;52.496;13.456;2023-05-14T18:45:16;7.13;;;5.00;;
70078;SDS011;57451;52.496;13.456;2023-05-14T18:47:44;8.37;;;4.77;;
70078;SDS011;57451;52.496;13.456;2023-05-14T18:50:13;11.27;;;5.15;;
70078;SDS011;57451;52.496;13.456;2023-05-14T18:52:40;9.60;;;4.97;;
70078;SDS011;57451;52.496;13.456;2023-05-14T18:55:07;8.20;;;5.25;;
70078;SDS011;57451;52.496;13.456;2023-05-14T18:57:35;9.27;;;5.43;;
70078;SDS011;57451;52.496;13.456;2023-05-14T19:00:03;9.37;;;5.40;;
70078;SDS011;57451;52.496;13.456;2023-05-14T19:02:32;9.77;;;5.43;;
70078;SDS011;57451;52.496;13.456;2023-05-14T19:04:59;7.70;;;5.15;;
70078;SDS011;57451;52.496;13.456;2023-05-14T19:07:28;8.20;;;5.20;;
70078;SDS011;57451;52.496;13.456;2023-05-14T19:09:56;8.80;;;5.43;;
70078;SDS011;57451;52.496;13.456;2023-05-14T19:12:24;8.57;;;5.20;;
70078;SDS011;57451;52.496;13.456;2023-05-14T19:14:52;8.93;;;5.18;;
70078;SDS011;57451;52.496;13.456;2023-05-14T19:17:19;7.03;;;4.70;;
70078;SDS011;57451;52.496;13.456;2023-05-14T19:19:47;7.10;;;4.93;;
70078;SDS011;57451;52.496;13.456;2023-05-14T19:22:14;8.52;;;4.80;;
70078;SDS011;57451;52.496;13.456;2023-05-14T19:24:43;8.00;;;4.67;;
70078;SDS011;57451;52.496;13.456;2023-05-14T19:27:11;8.88;;;4.88;;
70078;SDS011;57451;52.496;13.456;2023-05-14T19:29:41;9.63;;;5.25;;
70078;SDS011;57451;52.496;13.456;2023-05-14T19:32:09;9.02;;;4.95;;
70078;SDS011;57451;52.496;13.456;2023-05-14T19:34:36;8.23;;;4.82;;
70078;SDS011;57451;52.496;13.456;2023-05-14T19:37:04;10.40;;;5.10;;
70078;SDS011;57451;52.496;13.456;2023-05-14T19:39:31;7.07;;;4.55;;
70078;SDS011;57451;52.496;13.456;2023-05-14T19:42:00;9.48;;;5.43;;
70078;SDS011;57451;52.496;13.456;2023-05-14T19:44:28;10.32;;;5.75;;
70078;SDS011;57451;52.496;13.456;2023-05-14T19:46:56;10.05;;;6.00;;
70078;SDS011;57451;52.496;13.456;2023-05-14T19:49:24;9.53;;;6.20;;
70078;SDS011;57451;52.496;13.456;2023-05-14T19:51:51;8.98;;;5.90;;
70078;SDS011;57451;52.496;13.456;2023-05-14T19:54:18;13.43;;;6.25;;
70078;SDS011;57451;52.496;13.456;2023-05-14T19:56:46;8.20;;;5.55;;
70078;SDS011;57451;52.496;13.456;2023-05-14T19:59:15;10.38;;;5.78;;
70078;SDS011;57451;52.496;13.456;2023-05-14T20:01:42;10.00;;;5.30;;
70078;SDS011;57451;52.496;13.456;2023-05-14T20:04:10;10.57;;;5.93;;
70078;SDS011;57451;52.496;13.456;2023-05-14T20:06:39;8.73;;;5.60;;
70078;SDS011;57451;52.496;13.456;2023-05-14T20:09:07;12.82;;;9.32;;
70078;SDS011;57451;52.496;13.456;2023-05-14T20:11:34;14.15;;;9.48;;
70078;SDS011;57451;52.496;13.456;2023-05-14T20:14:02;10.93;;;7.07;;
70078;SDS011;57451;52.496;13.456;2023-05-14T20:16:30;12.48;;;8.50;;
70078;SDS011;57451;52.496;13.456;2023-05-14T20:18:58;12.70;;;7.95;;
70078;SDS011;57451;52.496;13.456;2023-05-14T20:21:25;12.23;;;7.50;;
70078;SDS011;57451;52.496;13.456;2023-05-14T20:23:53;11.63;;;6.53;;
70078;SDS011;57451;52.496;13.456;2023-05-14T20:26:20;10.27;;;6.73;;
70078;SDS011;57451;52.496;13.456;2023-05-14T20:28:47;10.55;;;6.53;;
70078;SDS011;57451;52.496;13.456;2023-05-14T20:31:15;14.15;;;6.57;;
70078;SDS011;57451;52.496;13.456;2023-05-14T20:33:44;12.30;;;6.70;;
70078;SDS011;57451;52.496;13.456;2023-05-14T20:36:11;10.65;;;6.47;;
70078;SDS011;57451;52.496;13.456;2023-05-14T20:38:39;11.67;;;7.10;;
70078;SDS011;57451;52.496;13.456;2023-05-14T20:41:06;9.88;;;6.25;;
70078;SDS011;57451;52.496;13.456;2023-05-14T20:43:34;13.50;;;6.78;;
70078;SDS011;57451;52.496;13.456;2023-05-14T20:46:01;12.60;;;6.40;;
70078;SDS011;57451;52.496;13.456;2023-05-14T20:48:28;15.13;;;7.22;;
70078;SDS011;57451;52.496;13.456;2023-05-14T20:50:57;11.57;;;6.60;;
70078;SDS011;57451;52.496;13.456;2023-05-14T20:53:25;14.45;;;6.55;;
70078;SDS011;57451;52.496;13.456;2023-05-14T20:55:54;11.52;;;6.72;;
70078;SDS011;57451;52.496;13.456;2023-05-14T20:58:21;11.63;;;7.18;;
70078;SDS011;57451;52.496;13.456;2023-05-14T21:00:49;12.75;;;6.95;;
70078;SDS011;57451;52.496;13.456;2023-05-14T21:03:16;11.33;;;6.80;;
70078;SDS011;57451;52.496;13.456;2023-05-14T21:05:44;10.35;;;6.57;;